Time;durP1;ratioP1;P1;durP2;ratioP2;P2;SDS_P1;SDS_P2;PMS_P1;PMS_P2;Temp;Humidity;BMP_temperature;BMP_pressure;BME280_temperature;BME280_humidity;BME280_pressure;Samples;Min_cycle;Max_cycle;Signal;HPM_P1;HPM_P2
2021/09/08 16:07:40;;;;;;;22.60;6.90;;;22.10;74.80;;;;;;5222150;27;20130;-57
2021/09/08 16:10:27;;;;;;;35.38;8.18;;;22.00;76.10;;;;;;5175751;28;20534;-59
2021/09/08 16:13:02;;;;;;;21.60;7.85;;;22.00;76.60;;;;;;5146658;28;20071;-56
2021/09/08 16:15:41;;;;;;;16.83;8.63;;;22.20;76.60;;;;;;5143278;28;20046;-55
2021/09/08 16:18:17;;;;;;;18.00;8.20;;;22.30;76.10;;;;;;5149596;28;20046;-55
2021/09/08 16:20:54;;;;;;;24.52;9.73;;;22.50;75.20;;;;;;5167716;28;25449;-49
2021/09/08 16:23:33;;;;;;;17.92;8.80;;;22.70;74.70;;;;;;5165421;28;20076;-54
2021/09/08 16:26:10;;;;;;;18.98;9.32;;;22.90;74.40;;;;;;5167539;28;20049;-55
2021/09/08 16:28:44;;;;;;;17.48;9.13;;;23.10;73.60;;;;;;5176638;28;20488;-54
2021/09/08 16:31:17;;;;;;;21.80;9.38;;;23.20;72.70;;;;;;5171132;28;20337;-55
2021/09/08 16:33:55;;;;;;;25.75;10.02;;;23.40;72.00;;;;;;5176244;28;20595;-55
2021/09/08 16:36:28;;;;;;;20.40;9.50;;;23.50;71.50;;;;;;5178555;28;20056;-54
2021/09/08 16:39:01;;;;;;;18.95;9.75;;;23.60;71.20;;;;;;5177182;28;20049;-51
2021/09/08 16:41:34;;;;;;;20.42;9.13;;;23.70;71.00;;;;;;5169574;28;20041;-55
2021/09/08 16:44:08;;;;;;;22.88;9.93;;;23.80;70.80;;;;;;5169392;28;20381;-53
2021/09/08 16:46:41;;;;;;;23.92;11.15;;;23.80;70.80;;;;;;5182952;28;20049;-54
2021/09/08 16:49:13;;;;;;;32.97;11.80;;;23.90;71.00;;;;;;5169923;28;20046;-55
2021/09/08 16:51:46;;;;;;;26.77;10.52;;;23.90;70.70;;;;;;5172950;28;20038;-55
2021/09/08 16:54:18;;;;;;;26.65;10.32;;;24.00;70.70;;;;;;5180481;28;20060;-52
2021/09/08 16:56:51;;;;;;;18.10;9.97;;;24.10;70.50;;;;;;5185381;28;20052;-56
2021/09/08 16:59:24;;;;;;;17.77;10.93;;;24.10;70.40;;;;;;5175590;28;20497;-52
2021/09/08 17:01:56;;;;;;;21.20;10.57;;;24.20;70.30;;;;;;5168908;28;20049;-56
2021/09/08 17:04:30;;;;;;;16.67;10.50;;;24.30;70.40;;;;;;5160314;28;20636;-54
2021/09/08 17:07:02;;;;;;;17.55;10.43;;;24.40;70.20;;;;;;5169842;28;20048;-55
2021/09/08 17:09:35;;;;;;;46.63;13.48;;;24.40;69.80;;;;;;5166341;28;26473;-53
2021/09/08 17:12:07;;;;;;;61.22;14.40;;;24.50;69.70;;;;;;5170255;28;20045;-55
2021/09/08 17:14:40;;;;;;;53.95;13.48;;;24.50;69.70;;;;;;5171506;28;20486;-54
2021/09/08 17:17:12;;;;;;;22.15;10.68;;;24.50;69.30;;;;;;5161868;28;20527;-53
2021/09/08 17:19:45;;;;;;;26.00;11.30;;;24.60;69.30;;;;;;5150453;28;21396;-48
2021/09/08 17:22:18;;;;;;;38.17;12.38;;;24.60;69.30;;;;;;5156076;28;20053;-53
2021/09/08 17:24:50;;;;;;;28.60;12.30;;;24.60;69.60;;;;;;5157272;28;20049;-54
2021/09/08 17:27:23;;;;;;;22.35;12.13;;;24.60;69.60;;;;;;5160815;28;20053;-53
2021/09/08 17:29:56;;;;;;;20.10;11.93;;;24.60;69.60;;;;;;5158855;28;20041;-56
2021/09/08 17:32:28;;;;;;;22.05;11.60;;;24.60;69.90;;;;;;5137007;28;20503;-50
2021/09/08 17:35:01;;;;;;;17.25;11.75;;;24.60;70.40;;;;;;5142785;28;20054;-54
2021/09/08 17:37:35;;;;;;;17.58;11.02;;;24.60;71.40;;;;;;5149459;28;20061;-53
2021/09/08 17:40:15;;;;;;;17.48;11.25;;;24.60;71.90;;;;;;5151475;28;20056;-56
2021/09/08 17:42:52;;;;;;;15.20;11.20;;;24.50;72.00;;;;;;5163258;28;20053;-54
2021/09/08 17:45:28;;;;;;;14.45;11.50;;;24.50;72.10;;;;;;5163216;28;20057;-53
2021/09/08 17:48:03;;;;;;;13.72;10.93;;;24.50;72.20;;;;;;4465543;28;10000903;-53
2021/09/08 17:50:36;;;;;;;19.60;11.10;;;24.40;72.30;;;;;;5141713;28;20722;-56
2021/09/08 17:53:09;;;;;;;15.20;11.25;;;24.40;72.30;;;;;;5151842;28;20045;-53
2021/09/08 17:55:43;;;;;;;18.15;11.02;;;24.50;72.10;;;;;;5156858;28;20060;-55
2021/09/08 17:58:17;;;;;;;16.73;11.52;;;24.50;71.80;;;;;;5153980;28;20060;-53
2021/09/08 18:00:51;;;;;;;15.00;11.02;;;24.50;72.50;;;;;;5144806;28;20056;-50
2021/09/08 18:03:24;;;;;;;18.08;11.55;;;24.40;72.10;;;;;;5156863;28;20065;-56
2021/09/08 18:05:57;;;;;;;;;;;24.40;72.20;;;;;;5163524;28;20046;-49
2021/09/08 18:08:30;;;;;;;17.87;11.53;;;24.30;72.50;;;;;;5141366;28;19976;-52
2021/09/08 18:11:03;;;;;;;16.58;11.75;;;24.20;72.50;;;;;;5157626;28;20402;-54
2021/09/08 18:13:35;;;;;;;17.17;11.70;;;24.10;72.60;;;;;;5140473;28;20042;-55
2021/09/08 18:16:09;;;;;;;21.23;11.48;;;24.00;72.80;;;;;;5156680;28;20049;-56
2021/09/08 18:18:43;;;;;;;19.02;12.73;;;24.00;72.90;;;;;;5171700;28;20045;-55
2021/09/08 18:21:16;;;;;;;;;;;23.90;72.70;;;;;;5185705;28;20049;-55
2021/09/08 18:23:48;;;;;;;14.50;11.07;;;23.90;72.30;;;;;;5173991;28;20377;-46
2021/09/08 18:26:21;;;;;;;16.40;12.30;;;23.90;72.40;;;;;;5172440;28;21048;-54
2021/09/08 18:28:55;;;;;;;14.88;11.82;;;23.90;72.30;;;;;;5172838;28;20069;-53
2021/09/08 18:31:28;;;;;;;21.27;11.60;;;23.90;72.10;;;;;;5182746;28;20046;-49
2021/09/08 18:34:01;;;;;;;17.02;12.27;;;23.80;72.10;;;;;;5177466;28;20521;-50
2021/09/08 18:36:38;;;;;;;17.30;11.38;;;23.80;72.30;;;;;;5185888;28;20050;-54
2021/09/08 18:39:11;;;;;;;15.80;12.20;;;23.70;72.40;;;;;;5176692;28;20171;-49
2021/09/08 18:41:44;;;;;;;21.37;12.30;;;23.60;72.60;;;;;;5187328;28;20073;-55
2021/09/08 18:44:16;;;;;;;17.83;12.85;;;23.50;72.90;;;;;;5172662;28;20061;-56
2021/09/08 18:46:50;;;;;;;19.17;12.75;;;23.30;73.20;;;;;;5175036;28;20045;-54
2021/09/08 18:49:22;;;;;;;18.70;12.70;;;23.20;73.70;;;;;;5180634;28;20049;-54
2021/09/08 18:51:54;;;;;;;18.02;12.95;;;23.00;74.10;;;;;;5178635;28;20049;-54
2021/09/08 18:54:27;;;;;;;16.42;11.63;;;22.90;74.40;;;;;;5178140;28;20056;-54
2021/09/08 18:57:00;;;;;;;18.25;12.63;;;22.70;74.70;;;;;;5173318;28;20060;-54
2021/09/08 18:59:32;;;;;;;24.97;12.80;;;22.70;74.90;;;;;;5168686;28;20415;-56
2021/09/08 19:02:05;;;;;;;20.00;12.32;;;22.60;75.00;;;;;;5169240;28;20050;-55
2021/09/08 19:04:38;;;;;;;16.33;12.90;;;22.50;75.00;;;;;;5173886;28;20053;-56
2021/09/08 19:07:11;;;;;;;21.25;12.45;;;22.60;75.00;;;;;;5177596;28;20529;-57
2021/09/08 19:09:43;;;;;;;27.73;13.98;;;22.60;75.00;;;;;;5172965;28;20759;-56
2021/09/08 19:12:16;;;;;;;18.35;12.48;;;22.60;74.90;;;;;;5161851;28;20045;-54
2021/09/08 19:14:51;;;;;;;21.67;13.00;;;22.50;74.90;;;;;;5173635;28;20059;-56
2021/09/08 19:17:27;;;;;;;16.00;12.57;;;22.40;75.30;;;;;;5174714;28;20348;-54
2021/09/08 19:19:59;;;;;;;22.38;13.65;;;22.20;75.70;;;;;;5175875;28;20042;-57
2021/09/08 19:22:32;;;;;;;20.05;14.05;;;22.10;76.30;;;;;;5183511;28;20056;-56
2021/09/08 19:25:06;;;;;;;16.77;13.07;;;22.00;76.10;;;;;;5178616;28;20045;-55
2021/09/08 19:27:39;;;;;;;18.58;13.55;;;21.90;76.30;;;;;;5183914;28;20056;-53
2021/09/08 19:30:12;;;;;;;17.92;13.15;;;21.80;76.40;;;;;;5176755;28;20053;-56
2021/09/08 19:32:44;;;;;;;17.27;12.48;;;21.70;76.60;;;;;;5175603;28;20045;-56
2021/09/08 19:35:18;;;;;;;19.63;13.07;;;21.60;76.70;;;;;;5178181;28;20041;-50
2021/09/08 19:37:50;;;;;;;17.35;12.98;;;21.60;77.30;;;;;;5178699;28;20049;-56
2021/09/08 19:40:23;;;;;;;21.05;14.02;;;21.40;77.70;;;;;;5178445;28;20057;-56
2021/09/08 19:42:55;;;;;;;16.97;12.70;;;21.30;78.10;;;;;;5172275;28;20429;-55
2021/09/08 19:45:28;;;;;;;16.77;12.65;;;21.30;78.30;;;;;;5171363;28;20529;-56
2021/09/08 19:48:00;;;;;;;18.70;12.32;;;21.20;78.60;;;;;;5168442;28;20597;-55
2021/09/08 19:50:33;;;;;;;19.95;13.63;;;21.10;78.90;;;;;;5163496;28;20041;-56
2021/09/08 19:53:10;;;;;;;19.35;12.80;;;21.00;79.10;;;;;;5179369;28;20042;-54
2021/09/08 19:55:42;;;;;;;16.75;12.20;;;21.00;79.30;;;;;;5177731;28;20060;-52
2021/09/08 19:58:15;;;;;;;18.75;13.05;;;20.90;79.50;;;;;;5179284;28;20045;-54
2021/09/08 20:00:47;;;;;;;21.50;13.48;;;20.80;79.50;;;;;;5171302;28;20506;-56
2021/09/08 20:03:20;;;;;;;18.47;13.17;;;20.80;79.40;;;;;;5166014;28;20053;-50
2021/09/08 20:05:53;;;;;;;19.67;13.38;;;20.70;79.60;;;;;;5174142;28;20061;-51
2021/09/08 20:08:27;;;;;;;18.05;12.50;;;20.60;80.00;;;;;;5171503;28;20399;-56
2021/09/08 20:10:59;;;;;;;19.60;13.02;;;20.60;80.00;;;;;;5188690;28;20410;-55
2021/09/08 20:13:32;;;;;;;16.55;12.05;;;20.50;80.00;;;;;;5162695;28;20053;-62
2021/09/08 20:16:05;;;;;;;19.00;12.17;;;20.50;80.10;;;;;;5168041;28;20550;-51
2021/09/08 20:18:37;;;;;;;17.90;12.60;;;20.50;80.20;;;;;;5160713;28;20062;-55
2021/09/08 20:21:10;;;;;;;20.63;11.93;;;20.60;80.60;;;;;;5164012;28;20526;-55
2021/09/08 20:23:43;;;;;;;28.92;11.85;;;20.70;80.70;;;;;;5172876;28;24295;-56
2021/09/08 20:26:15;;;;;;;48.95;14.85;;;20.70;80.40;;;;;;5178935;28;20411;-54
2021/09/08 20:28:47;;;;;;;36.05;13.57;;;20.80;80.40;;;;;;5167909;28;20061;-56
2021/09/08 20:31:22;;;;;;;43.22;14.85;;;20.90;80.00;;;;;;5173333;28;20076;-57
2021/09/08 20:33:54;;;;;;;58.88;15.88;;;21.00;79.90;;;;;;5181957;28;20073;-57
2021/09/08 20:36:27;;;;;;;59.78;15.75;;;21.10;79.80;;;;;;5178509;28;20060;-51
2021/09/08 20:38:59;;;;;;;47.28;14.70;;;21.10;79.90;;;;;;5186144;28;20419;-56
2021/09/08 20:41:32;;;;;;;41.35;14.10;;;21.20;79.70;;;;;;5186958;28;20057;-55
2021/09/08 20:44:05;;;;;;;41.20;14.73;;;21.20;79.30;;;;;;5185555;28;20038;-55
2021/09/08 20:46:38;;;;;;;32.15;13.40;;;21.30;79.10;;;;;;5187266;28;20086;-56
2021/09/08 20:49:11;;;;;;;38.95;14.80;;;21.30;78.90;;;;;;5188515;28;20049;-57
2021/09/08 20:51:43;;;;;;;35.45;12.75;;;21.40;78.80;;;;;;5183505;28;20042;-54
2021/09/08 20:54:16;;;;;;;29.35;13.13;;;21.40;78.60;;;;;;5191064;28;20052;-57
2021/09/08 20:56:49;;;;;;;28.30;12.68;;;21.40;78.50;;;;;;5191744;28;20042;-57
2021/09/08 20:59:22;;;;;;;36.53;13.98;;;21.50;78.40;;;;;;5193216;28;20037;-57
2021/09/08 21:01:54;;;;;;;26.15;12.35;;;21.50;78.20;;;;;;5193599;28;20057;-57
2021/09/08 21:04:27;;;;;;;27.70;12.75;;;21.50;78.10;;;;;;5193831;28;20056;-57
2021/09/08 21:07:00;;;;;;;32.08;13.30;;;21.60;77.90;;;;;;5195147;28;20057;-53
2021/09/08 21:09:32;;;;;;;26.60;12.93;;;21.60;77.90;;;;;;5192895;28;20415;-56
2021/09/08 21:12:05;;;;;;;25.35;12.40;;;21.60;77.70;;;;;;5195238;28;20037;-57
2021/09/08 21:14:38;;;;;;;24.35;12.80;;;21.60;77.60;;;;;;5193880;28;20038;-55
2021/09/08 21:17:11;;;;;;;26.83;13.10;;;21.60;77.50;;;;;;5191367;28;20042;-55
2021/09/08 21:19:43;;;;;;;21.17;12.43;;;21.60;77.50;;;;;;5192133;28;20054;-55
2021/09/08 21:22:15;;;;;;;22.23;12.50;;;21.60;77.30;;;;;;5188251;28;24753;-56
2021/09/08 21:24:48;;;;;;;22.70;13.77;;;21.60;77.10;;;;;;5176357;28;20045;-55
2021/09/08 21:27:20;;;;;;;27.77;13.52;;;21.60;77.10;;;;;;5190772;28;20053;-56
2021/09/08 21:29:52;;;;;;;21.88;12.90;;;21.70;77.20;;;;;;5191785;28;20100;-55
2021/09/08 21:32:27;;;;;;;20.85;13.52;;;21.70;77.10;;;;;;5190673;28;20061;-55
2021/09/08 21:34:59;;;;;;;26.13;13.18;;;21.70;77.00;;;;;;5192076;28;20048;-53
2021/09/08 21:37:32;;;;;;;20.63;13.13;;;21.70;77.00;;;;;;5189984;28;20045;-52
2021/09/08 21:40:06;;;;;;;27.58;12.48;;;21.70;77.30;;;;;;5185271;28;20049;-54
2021/09/08 21:42:39;;;;;;;38.47;14.48;;;21.70;77.30;;;;;;5193770;28;20052;-55
2021/09/08 21:45:12;;;;;;;29.40;13.85;;;21.70;77.20;;;;;;5193473;28;20072;-57
2021/09/08 21:47:45;;;;;;;54.80;15.20;;;21.80;77.00;;;;;;5195177;28;20073;-53
2021/09/08 21:50:19;;;;;;;44.28;15.43;;;21.80;77.00;;;;;;5190421;28;20053;-51
2021/09/08 21:52:51;;;;;;;34.05;14.93;;;21.70;76.90;;;;;;5210391;22;20049;-61
2021/09/08 21:55:24;;;;;;;41.03;15.33;;;21.80;77.00;;;;;;5190660;28;20042;-63
2021/09/08 21:57:56;;;;;;;30.95;14.15;;;21.80;76.90;;;;;;5194009;28;20053;-62
2021/09/08 22:00:30;;;;;;;32.00;14.00;;;21.80;76.80;;;;;;5195672;28;20056;-62
2021/09/08 22:03:03;;;;;;;27.10;13.17;;;21.80;76.70;;;;;;5193527;28;20523;-62
2021/09/08 22:05:36;;;;;;;22.75;13.55;;;21.80;76.70;;;;;;5180472;28;20053;-62
2021/09/08 22:08:08;;;;;;;30.33;13.88;;;21.80;76.60;;;;;;5183949;28;20041;-62
2021/09/08 22:10:41;;;;;;;31.88;13.65;;;21.80;77.10;;;;;;5179464;28;20054;-62
2021/09/08 22:13:14;;;;;;;31.58;13.73;;;21.80;76.40;;;;;;5169812;28;20050;-61
2021/09/08 22:15:46;;;;;;;25.10;12.55;;;21.80;76.40;;;;;;4492477;28;10000584;-61
2021/09/08 22:18:19;;;;;;;44.40;14.20;;;21.80;76.20;;;;;;5180677;28;20509;-62
2021/09/08 22:20:51;;;;;;;31.15;13.95;;;21.80;76.20;;;;;;5184116;28;20050;-62
2021/09/08 22:23:26;;;;;;;18.23;12.45;;;21.80;76.20;;;;;;5184119;28;20060;-62
2021/09/08 22:25:58;;;;;;;45.90;14.20;;;21.80;75.90;;;;;;5173415;28;20631;-62
2021/09/08 22:28:31;;;;;;;35.97;13.90;;;21.80;76.00;;;;;;5183170;28;20048;-61
2021/09/08 22:31:03;;;;;;;36.00;13.40;;;21.80;75.70;;;;;;5181496;28;20046;-62
2021/09/08 22:33:36;;;;;;;45.95;14.00;;;21.80;75.70;;;;;;5183259;28;20055;-62
2021/09/08 22:36:09;;;;;;;23.20;11.93;;;21.80;75.70;;;;;;5182922;28;20042;-61
2021/09/08 22:38:41;;;;;;;21.90;12.60;;;21.80;75.40;;;;;;5178537;28;20049;-62
2021/09/08 22:41:13;;;;;;;31.63;12.85;;;21.80;75.30;;;;;;5183190;28;20053;-62
2021/09/08 22:43:46;;;;;;;21.83;13.25;;;21.80;75.50;;;;;;5181243;28;20057;-62
2021/09/08 22:46:18;;;;;;;23.83;12.57;;;21.80;75.30;;;;;;5183649;28;20058;-63
2021/09/08 22:48:50;;;;;;;22.70;13.18;;;21.80;75.20;;;;;;5179090;28;20046;-62
2021/09/08 22:51:25;;;;;;;21.45;12.75;;;21.80;75.20;;;;;;5182406;28;20057;-61
2021/09/08 22:53:57;;;;;;;24.92;12.88;;;21.80;75.10;;;;;;5148905;28;20046;-62
2021/09/08 22:56:30;;;;;;;23.13;12.48;;;21.80;75.20;;;;;;5165026;28;20046;-62
2021/09/08 22:59:03;;;;;;;;;;;21.80;75.00;;;;;;5180266;28;20041;-63
2021/09/08 23:01:36;;;;;;;17.23;11.77;;;21.80;74.60;;;;;;5182903;28;19932;-62
2021/09/08 23:04:10;;;;;;;;;;;21.80;74.90;;;;;;5177948;28;20388;-62
2021/09/08 23:06:46;;;;;;;22.75;13.10;;;21.80;74.90;;;;;;5179954;28;19925;-61
2021/09/08 23:09:19;;;;;;;21.33;11.68;;;21.80;75.10;;;;;;5178471;28;20050;-61
2021/09/08 23:11:53;;;;;;;23.80;12.00;;;21.80;74.80;;;;;;5179123;28;20042;-62
2021/09/08 23:14:26;;;;;;;16.67;11.15;;;21.80;75.00;;;;;;5179855;28;20061;-61
2021/09/08 23:16:59;;;;;;;17.15;11.95;;;21.80;74.70;;;;;;5182191;28;20045;-62
2021/09/08 23:19:32;;;;;;;18.48;11.75;;;21.80;74.70;;;;;;5161288;28;20491;-62
2021/09/08 23:22:05;;;;;;;16.95;12.10;;;21.80;74.60;;;;;;5178836;28;20400;-62
2021/09/08 23:24:37;;;;;;;17.55;11.40;;;21.80;74.50;;;;;;5160199;28;20072;-62
2021/09/08 23:27:11;;;;;;;17.88;10.45;;;21.80;74.50;;;;;;5180708;28;20054;-62
2021/09/08 23:29:44;;;;;;;21.40;11.48;;;21.80;74.60;;;;;;5174079;28;20046;-62
2021/09/08 23:32:17;;;;;;;18.10;11.93;;;21.80;74.30;;;;;;5181213;28;20042;-62
2021/09/08 23:34:50;;;;;;;14.45;11.30;;;21.80;74.40;;;;;;5118829;28;20053;-62
2021/09/08 23:37:24;;;;;;;14.23;10.93;;;21.80;74.40;;;;;;5180893;28;20042;-63
2021/09/08 23:39:58;;;;;;;21.40;12.07;;;21.80;74.30;;;;;;5178333;28;20058;-62
2021/09/08 23:42:31;;;;;;;18.17;11.48;;;21.80;74.20;;;;;;5165464;28;20045;-62
2021/09/08 23:45:05;;;;;;;21.55;11.93;;;21.80;74.10;;;;;;5161550;28;20049;-62
2021/09/08 23:47:39;;;;;;;15.35;10.93;;;21.80;74.10;;;;;;5180098;28;20065;-62
2021/09/08 23:50:12;;;;;;;20.60;11.40;;;21.80;74.00;;;;;;5180887;28;20384;-62
2021/09/08 23:52:46;;;;;;;15.15;12.02;;;21.80;74.10;;;;;;5181968;28;20091;-62
2021/09/08 23:55:19;;;;;;;20.45;11.23;;;21.80;73.90;;;;;;5175729;28;20045;-62
2021/09/08 23:57:52;;;;;;;15.13;11.05;;;21.80;73.90;;;;;;5179338;28;20046;-62
